Time;durP1;ratioP1;P1;durP2;ratioP2;P2;SDS_P1;SDS_P2;PMS_P1;PMS_P2;Temp;Humidity;BMP_temperature;BMP_pressure;BME280_temperature;BME280_humidity;BME280_pressure;Samples;Min_cycle;Max_cycle;Signal;HPM_P1;HPM_P2
2021/08/05 00:00:20;;;;;;;;;;;;;;;20.57;81.10;98996.56;5134926;28;19928;-69
2021/08/05 00:02:49;;;;;;;;;;;;;;;20.57;80.93;98990.53;5135124;28;19944;-70
2021/08/05 00:05:18;;;;;;;;;;;;;;;20.54;80.93;98977.72;5134502;28;19930;-70
2021/08/05 00:07:46;;;;;;;;;;;;;;;20.45;81.10;98976.47;5134782;28;20357;-74
2021/08/05 00:10:16;;;;;;;;;;;;;;;20.42;81.03;98975.78;5134527;28;19924;-70
2021/08/05 00:12:45;;;;;;;;;;;;;;;20.43;81.14;98961.91;5134541;28;20437;-70
2021/08/05 00:15:15;;;;;;;;;;;;;;;20.36;80.83;98955.38;5134476;28;19924;-70
2021/08/05 00:17:44;;;;;;;;;;;;;;;20.39;81.11;98950.03;5134539;28;19930;-70
2021/08/05 00:20:14;;;;;;;;;;;;;;;20.43;80.92;98946.34;5134357;28;19927;-70
2021/08/05 00:22:42;;;;;;;;;;;;;;;20.42;80.95;98955.06;5134386;27;20377;-70
2021/08/05 00:25:12;;;;;;;;;;;;;;;20.43;80.97;98951.53;5137421;27;20311;-74
2021/08/05 00:27:40;;;;;;;;;;;;;;;20.42;80.97;98953.28;5138013;27;20103;-73
2021/08/05 00:30:11;;;;;;;;;;;;;;;20.40;80.99;98947.34;5138078;27;19923;-69
2021/08/05 00:32:42;;;;;;;;;;;;;;;20.39;81.02;98944.84;5138041;27;19976;-69
2021/08/05 00:35:11;;;;;;;;;;;;;;;20.41;81.23;98937.81;5138058;27;20010;-73
2021/08/05 00:37:40;;;;;;;;;;;;;;;20.43;81.19;98941.16;5119714;27;19924;-73
2021/08/05 00:40:11;;;;;;;;;;;;;;;20.36;81.40;98945.84;5119806;27;19949;-73
2021/08/05 00:42:39;;;;;;;;;;;;;;;20.34;81.61;98954.59;5137846;27;19924;-73
2021/08/05 00:45:09;;;;;;;;;;;;;;;20.34;81.70;98952.00;5138172;27;20408;-73
2021/08/05 00:47:38;;;;;;;;;;;;;;;20.34;81.72;98950.25;5119351;27;20377;-74
2021/08/05 00:50:09;;;;;;;;;;;;;;;20.36;81.49;98945.84;5137675;27;19923;-73
2021/08/05 00:52:38;;;;;;;;;;;;;;;20.37;81.65;98946.69;5119733;27;20344;-73
2021/08/05 00:55:07;;;;;;;;;;;;;;;20.37;81.52;98944.91;5119276;27;19972;-73
2021/08/05 00:57:36;;;;;;;;;;;;;;;20.40;81.45;98936.13;5137577;27;19930;-70
2021/08/05 01:00:05;;;;;;;;;;;;;;;20.40;81.40;98930.94;5137456;27;19929;-71
2021/08/05 01:02:41;;;;;;;;;;;;;;;20.35;81.20;98932.94;5119260;27;19931;-69
2021/08/05 01:05:12;;;;;;;;;;;;;;;20.36;81.30;98912.13;5119654;27;19923;-73
2021/08/05 01:07:45;;;;;;;;;;;;;;;20.35;81.28;98907.00;5137400;27;19927;-73
2021/08/05 01:10:17;;;;;;;;;;;;;;;20.31;81.23;98908.09;5119611;27;20014;-71
2021/08/05 01:12:48;;;;;;;;;;;;;;;20.26;81.13;98902.31;5137988;27;20280;-70
2021/08/05 01:15:21;;;;;;;;;;;;;;;20.24;81.31;98896.38;5137326;27;19924;-70
2021/08/05 01:17:51;;;;;;;;;;;;;;;20.25;81.33;98892.88;5137173;27;20030;-70
2021/08/05 01:20:23;;;;;;;;;;;;;;;20.20;81.35;98887.91;5118852;27;19969;-73
2021/08/05 01:22:59;;;;;;;;;;;;;;;20.15;81.30;98879.53;5137141;27;19927;-73
2021/08/05 01:25:30;;;;;;;;;;;;;;;20.12;81.62;98881.44;5137021;27;20006;-73
2021/08/05 01:28:01;;;;;;;;;;;;;;;20.10;81.75;98886.72;5118666;27;19927;-73
2021/08/05 01:30:31;;;;;;;;;;;;;;;20.12;81.94;98882.28;5136966;27;20348;-73
2021/08/05 01:33:00;;;;;;;;;;;;;;;20.13;82.00;98872.78;5136867;27;20369;-70
2021/08/05 01:35:30;;;;;;;;;;;;;;;20.11;82.41;98872.00;5136521;27;19923;-73
2021/08/05 01:37:59;;;;;;;;;;;;;;;20.06;82.26;98875.66;5118891;27;20258;-69
2021/08/05 01:40:29;;;;;;;;;;;;;;;20.05;82.21;98874.00;5136748;27;19938;-73
2021/08/05 01:43:00;;;;;;;;;;;;;;;20.06;82.27;98872.22;5118459;27;20281;-73
2021/08/05 01:45:29;;;;;;;;;;;;;;;20.08;82.37;98879.00;5136590;27;19924;-73
2021/08/05 01:47:59;;;;;;;;;;;;;;;20.12;82.45;98881.44;5118136;27;19930;-73
2021/08/05 01:50:28;;;;;;;;;;;;;;;20.14;82.26;98880.44;5118230;27;20273;-73
2021/08/05 01:52:56;;;;;;;;;;;;;;;20.16;82.43;98875.19;5118147;27;19923;-73
2021/08/05 01:55:25;;;;;;;;;;;;;;;20.14;82.40;98887.38;5136952;27;20040;-70
2021/08/05 01:57:57;;;;;;;;;;;;;;;20.14;82.28;98882.19;5118068;27;19924;-70
2021/08/05 02:00:27;;;;;;;;;;;;;;;20.17;82.21;98876.88;5118083;27;19924;-70
2021/08/05 02:02:56;;;;;;;;;;;;;;;20.15;81.87;98886.47;5117894;27;19932;-70
2021/08/05 02:05:28;;;;;;;;;;;;;;;20.16;82.38;98888.13;5118679;27;20310;-73
2021/08/05 02:08:02;;;;;;;;;;;;;;;20.18;82.29;98878.56;5136103;27;19923;-73
2021/08/05 02:10:33;;;;;;;;;;;;;;;20.18;82.39;98876.78;5117899;27;19923;-69
2021/08/05 02:13:04;;;;;;;;;;;;;;;20.17;82.29;98871.69;5136388;27;19969;-69
2021/08/05 02:15:36;;;;;;;;;;;;;;;20.13;82.42;98862.41;5136088;27;19976;-69
2021/08/05 02:18:06;;;;;;;;;;;;;;;20.05;82.53;98850.69;5117767;27;19930;-72
2021/08/05 02:20:35;;;;;;;;;;;;;;;20.03;82.83;98842.13;5135854;27;19963;-72
2021/08/05 02:23:04;;;;;;;;;;;;;;;20.01;82.78;98846.56;5135824;27;19931;-69
2021/08/05 02:25:32;;;;;;;;;;;;;;;20.00;82.88;98850.09;5135872;27;20014;-72
2021/08/05 02:28:02;;;;;;;;;;;;;;;19.99;83.18;98853.59;5117738;27;19923;-72
2021/08/05 02:30:31;;;;;;;;;;;;;;;20.02;83.09;98844.81;5135559;27;19923;-73
2021/08/05 02:33:02;;;;;;;;;;;;;;;20.00;82.92;98834.53;5135943;27;19931;-73
2021/08/05 02:35:31;;;;;;;;;;;;;;;19.97;82.95;98829.53;5135719;27;19931;-73
2021/08/05 02:38:01;;;;;;;;;;;;;;;19.96;83.22;98835.59;5135987;27;19923;-72
2021/08/05 02:40:30;;;;;;;;;;;;;;;19.94;83.25;98819.31;5117652;27;19923;-72
2021/08/05 02:43:00;;;;;;;;;;;;;;;19.90;82.98;98825.56;5117152;27;20014;-70
2021/08/05 02:45:30;;;;;;;;;;;;;;;19.87;83.18;98823.13;5117223;27;19961;-73
2021/08/05 02:48:01;;;;;;;;;;;;;;;19.89;83.32;98831.66;5116519;27;19924;-73
2021/08/05 02:50:31;;;;;;;;;;;;;;;19.91;83.20;98824.66;5116840;27;19967;-70
2021/08/05 02:53:01;;;;;;;;;;;;;;;19.89;83.11;98818.72;5135672;27;19924;-73
2021/08/05 02:55:30;;;;;;;;;;;;;;;19.91;83.15;98806.53;5135358;27;19976;-70
2021/08/05 02:57:59;;;;;;;;;;;;;;;19.90;83.13;98806.59;5135318;27;19924;-69
2021/08/05 03:00:28;;;;;;;;;;;;;;;19.88;83.26;98804.09;5135296;27;20383;-73
2021/08/05 03:02:57;;;;;;;;;;;;;;;19.84;83.26;98802.56;5116479;27;20296;-70
2021/08/05 03:05:28;;;;;;;;;;;;;;;19.86;83.38;98808.53;5134561;27;21581;-73
2021/08/05 03:07:58;;;;;;;;;;;;;;;19.87;83.27;98812.78;5135130;27;19924;-73
2021/08/05 03:10:27;;;;;;;;;;;;;;;19.90;83.53;98802.25;5135116;27;19923;-70
2021/08/05 03:12:55;;;;;;;;;;;;;;;19.87;83.64;98801.56;5135002;27;19970;-72
2021/08/05 03:15:25;;;;;;;;;;;;;;;19.88;83.33;98788.56;5135110;27;19923;-73
2021/08/05 03:17:54;;;;;;;;;;;;;;;19.84;82.92;98787.03;5135038;27;19928;-70
2021/08/05 03:20:23;;;;;;;;;;;;;;;19.84;83.34;98781.84;5135029;28;19923;-69
2021/08/05 03:22:52;;;;;;;;;;;;;;;19.83;83.24;98775.03;5135344;28;19924;-73
2021/08/05 03:25:22;;;;;;;;;;;;;;;19.82;82.96;98775.91;5116836;28;19927;-70
2021/08/05 03:27:51;;;;;;;;;;;;;;;19.80;82.71;98770.00;5135001;28;19923;-73
2021/08/05 03:30:19;;;;;;;;;;;;;;;19.79;82.74;98763.16;5116776;28;19968;-73
2021/08/05 03:32:48;;;;;;;;;;;;;;;19.79;82.66;98757.13;5134864;28;19930;-70
2021/08/05 03:35:17;;;;;;;;;;;;;;;19.83;82.79;98751.72;5135106;28;19929;-69
2021/08/05 03:37:45;;;;;;;;;;;;;;;19.86;82.99;98754.16;5134862;28;19927;-70
2021/08/05 03:40:14;;;;;;;;;;;;;;;19.80;83.18;98738.91;5134796;28;19923;-69
2021/08/05 03:42:44;;;;;;;;;;;;;;;19.80;82.97;98744.09;5134800;28;19945;-69
2021/08/05 03:45:14;;;;;;;;;;;;;;;19.75;83.58;98735.72;5134709;28;19927;-72
2021/08/05 03:47:43;;;;;;;;;;;;;;;19.70;83.66;98736.91;5134671;28;19927;-69
2021/08/05 03:50:13;;;;;;;;;;;;;;;19.73;83.57;98732.38;5135038;28;20318;-69
2021/08/05 03:52:42;;;;;;;;;;;;;;;19.77;83.37;98738.25;5135074;28;20027;-70
2021/08/05 03:55:13;;;;;;;;;;;;;;;19.75;83.41;98740.91;5134628;28;20373;-73
2021/08/05 03:57:42;;;;;;;;;;;;;;;19.73;83.53;98747.94;5135693;27;19930;-74
2021/08/05 04:00:16;;;;;;;;;;;;;;;19.76;83.65;98747.78;5121150;27;20003;-70
2021/08/05 04:02:44;;;;;;;;;;;;;;;19.75;83.66;98753.84;5139373;27;19923;-73
2021/08/05 04:05:13;;;;;;;;;;;;;;;19.69;83.58;98751.59;5119925;27;20396;-70
2021/08/05 04:07:42;;;;;;;;;;;;;;;19.68;83.72;98754.25;5138880;27;20279;-70
2021/08/05 04:10:12;;;;;;;;;;;;;;;19.68;84.08;98743.91;5138388;27;19923;-73
2021/08/05 04:12:40;;;;;;;;;;;;;;;19.62;83.93;98728.69;5138402;27;19924;-73
2021/08/05 04:15:10;;;;;;;;;;;;;;;19.62;83.90;98721.78;5138362;27;20373;-70
2021/08/05 04:17:40;;;;;;;;;;;;;;;19.63;83.71;98720.84;5138916;27;19930;-69
2021/08/05 04:20:10;;;;;;;;;;;;;;;19.63;83.46;98707.06;5138306;27;20015;-69
2021/08/05 04:22:39;;;;;;;;;;;;;;;19.66;83.35;98704.31;5138289;27;19968;-73
2021/08/05 04:25:08;;;;;;;;;;;;;;;19.70;83.01;98706.66;5138174;27;19924;-71
2021/08/05 04:27:37;;;;;;;;;;;;;;;19.77;83.01;98717.53;5138118;27;20006;-74
2021/08/05 04:30:06;;;;;;;;;;;;;;;19.78;82.83;98720.03;5138042;27;19984;-73
2021/08/05 04:32:36;;;;;;;;;;;;;;;19.84;82.88;98734.41;5138087;27;20014;-70
2021/08/05 04:35:07;;;;;;;;;;;;;;;19.86;82.41;98743.78;5137981;27;19924;-70
2021/08/05 04:37:35;;;;;;;;;;;;;;;19.87;82.33;98749.78;5138279;27;19947;-74
2021/08/05 04:40:05;;;;;;;;;;;;;;;19.87;82.27;98744.59;5137949;27;20014;-73
2021/08/05 04:42:33;;;;;;;;;;;;;;;19.87;82.11;98744.59;5137855;27;20022;-68
2021/08/05 04:45:02;;;;;;;;;;;;;;;19.84;82.38;98735.22;5137908;27;20330;-69
2021/08/05 04:47:31;;;;;;;;;;;;;;;19.83;82.59;98723.22;5137803;27;19930;-72
2021/08/05 04:50:00;;;;;;;;;;;;;;;19.79;82.82;98728.66;5137747;27;19923;-72
2021/08/05 04:52:30;;;;;;;;;;;;;;;19.76;83.17;98732.22;5137706;27;19931;-72
2021/08/05 04:54:59;;;;;;;;;;;;;;;19.75;83.26;98734.88;5137669;27;19927;-72
2021/08/05 04:57:28;;;;;;;;;;;;;;;19.80;83.44;98728.56;5137580;27;19976;-72
2021/08/05 04:59:57;;;;;;;;;;;;;;;19.82;83.57;98729.31;5137833;27;19927;-72
2021/08/05 05:02:26;;;;;;;;;;;;;;;19.87;83.64;98723.88;5138074;27;20381;-69
2021/08/05 05:04:55;;;;;;;;;;;;;;;19.78;83.67;98730.41;5137306;27;19929;-69
2021/08/05 05:07:24;;;;;;;;;;;;;;;19.75;83.70;98725.38;5137380;27;19985;-70
2021/08/05 05:09:54;;;;;;;;;;;;;;;19.62;83.76;98716.59;5136534;27;19966;-72
2021/08/05 05:12:23;;;;;;;;;;;;;;;19.67;84.28;98711.16;5137628;27;19965;-69
2021/08/05 05:14:53;;;;;;;;;;;;;;;19.66;84.12;98719.84;5137373;27;19931;-71
2021/08/05 05:17:22;;;;;;;;;;;;;;;19.55;84.15;98723.00;5137052;27;19966;-71
2021/08/05 05:19:50;;;;;;;;;;;;;;;19.53;84.66;98724.81;5137139;27;19927;-70
2021/08/05 05:22:19;;;;;;;;;;;;;;;19.47;84.72;98719.97;5137033;27;19923;-73
2021/08/05 05:24:48;;;;;;;;;;;;;;;19.29;85.09;98728.66;5136350;27;19923;-71
2021/08/05 05:27:18;;;;;;;;;;;;;;;19.29;85.34;98726.09;5137112;27;19923;-72
2021/08/05 05:29:47;;;;;;;;;;;;;;;19.44;85.60;98719.28;5137045;27;19924;-72
2021/08/05 05:32:15;;;;;;;;;;;;;;;19.49;85.61;98723.31;5137365;27;19923;-71
2021/08/05 05:34:44;;;;;;;;;;;;;;;19.58;85.37;98722.03;5136871;27;19924;-70
2021/08/05 05:37:12;;;;;;;;;;;;;;;19.57;85.70;98721.19;5137239;27;20445;-71
2021/08/05 05:39:41;;;;;;;;;;;;;;;19.50;85.30;98726.75;5136753;27;19923;-72
2021/08/05 05:42:10;;;;;;;;;;;;;;;19.45;85.42;98727.00;5136708;27;19927;-73
2021/08/05 05:44:40;;;;;;;;;;;;;;;19.50;85.46;98721.56;5136669;27;19924;-72
2021/08/05 05:47:08;;;;;;;;;;;;;;;19.49;85.57;98720.72;5136791;27;19923;-71
2021/08/05 05:49:37;;;;;;;;;;;;;;;19.51;85.74;98726.66;5136521;27;19927;-73
2021/08/05 05:52:07;;;;;;;;;;;;;;;19.53;85.55;98731.78;5136742;27;19923;-71
2021/08/05 05:54:36;;;;;;;;;;;;;;;19.51;85.70;98726.66;5136455;27;19930;-70
2021/08/05 05:57:04;;;;;;;;;;;;;;;19.52;85.76;98723.16;5136648;27;20002;-72
2021/08/05 05:59:33;;;;;;;;;;;;;;;19.56;85.55;98713.47;5136711;27;20352;-72
2021/08/05 06:02:03;;;;;;;;;;;;;;;19.52;85.81;98715.41;5136289;27;19930;-73
2021/08/05 06:04:33;;;;;;;;;;;;;;;19.53;85.89;98704.13;5114137;28;19924;-73
2021/08/05 06:07:16;;;;;;;;;;;;;;;19.48;85.58;98706.13;5115688;28;20342;-71
2021/08/05 06:09:45;;;;;;;;;;;;;;;19.38;85.74;98704.94;5115581;28;19930;-73
2021/08/05 06:12:14;;;;;;;;;;;;;;;19.36;85.92;98711.94;5115428;28;20339;-73
2021/08/05 06:14:44;;;;;;;;;;;;;;;19.44;86.10;98720.13;5115262;27;19923;-71
2021/08/05 06:17:14;;;;;;;;;;;;;;;19.51;86.22;98710.31;5115160;28;20030;-72
2021/08/05 06:19:43;;;;;;;;;;;;;;;19.53;86.22;98711.06;5115198;28;20438;-71
2021/08/05 06:22:11;;;;;;;;;;;;;;;19.53;86.43;98704.13;5114283;28;20384;-71
2021/08/05 06:24:40;;;;;;;;;;;;;;;19.55;86.37;98702.31;5114898;28;19969;-72
2021/08/05 06:27:10;;;;;;;;;;;;;;;19.55;86.33;98702.31;5115011;28;19924;-73
2021/08/05 06:29:39;;;;;;;;;;;;;;;19.56;86.23;98701.38;5115630;28;20339;-72
2021/08/05 06:32:08;;;;;;;;;;;;;;;19.57;86.39;98708.22;5115155;28;19924;-72
2021/08/05 06:34:39;;;;;;;;;;;;;;;19.61;86.57;98712.31;5115105;28;19924;-73
2021/08/05 06:37:13;;;;;;;;;;;;;;;19.64;86.36;98709.56;5115217;28;19931;-72
2021/08/05 06:39:42;;;;;;;;;;;;;;;19.62;86.18;98708.84;5115060;28;19924;-74
2021/08/05 06:42:10;;;;;;;;;;;;;;;19.61;86.45;98703.72;5115025;28;19924;-73
2021/08/05 06:44:40;;;;;;;;;;;;;;;19.62;86.50;98703.66;5114998;28;19924;-71
2021/08/05 06:47:08;;;;;;;;;;;;;;;19.64;86.35;98695.78;5114903;28;19924;-72
2021/08/05 06:49:39;;;;;;;;;;;;;;;19.67;86.51;98701.66;5114943;28;19980;-71
2021/08/05 06:52:12;;;;;;;;;;;;;;;19.66;86.26;98697.38;5114808;28;19973;-73
2021/08/05 06:54:40;;;;;;;;;;;;;;;19.62;86.41;98695.03;5114781;28;19924;-73
2021/08/05 06:57:10;;;;;;;;;;;;;;;19.59;86.23;98713.31;5114838;28;19973;-73
2021/08/05 06:59:38;;;;;;;;;;;;;;;19.55;86.54;98720.44;5114999;28;19931;-73
2021/08/05 07:02:07;;;;;;;;;;;;;;;19.53;86.49;98709.28;5114690;28;19932;-71
2021/08/05 07:04:37;;;;;;;;;;;;;;;19.54;86.40;98694.59;5129044;27;19963;-74
2021/08/05 07:07:07;;;;;;;;;;;;;;;19.55;86.42;98698.88;5135243;27;19931;-74
2021/08/05 07:09:36;;;;;;;;;;;;;;;19.54;86.35;98695.44;5099761;28;19976;-72
2021/08/05 07:12:05;;;;;;;;;;;;;;;19.53;86.59;98698.94;5135043;27;19975;-71
2021/08/05 07:14:34;;;;;;;;;;;;;;;19.56;86.61;98703.97;5135050;27;20404;-74
2021/08/05 07:17:03;;;;;;;;;;;;;;;19.61;86.69;98701.13;5134954;27;19984;-73
2021/08/05 07:19:33;;;;;;;;;;;;;;;19.64;86.81;98708.72;5135038;27;19924;-71
2021/08/05 07:22:01;;;;;;;;;;;;;;;19.69;87.00;98704.16;5135251;28;20372;-74
2021/08/05 07:24:32;;;;;;;;;;;;;;;19.71;86.77;98694.53;5134943;28;20338;-71
2021/08/05 07:27:01;;;;;;;;;;;;;;;19.77;86.89;98695.03;5134899;28;19930;-74
2021/08/05 07:29:30;;;;;;;;;;;;;;;19.80;86.88;98692.31;5134856;28;19968;-72
2021/08/05 07:32:01;;;;;;;;;;;;;;;19.84;86.74;98698.97;5134776;28;20343;-73
2021/08/05 07:34:30;;;;;;;;;;;;;;;19.87;86.98;98697.97;5138417;27;19931;-73
2021/08/05 07:36:59;;;;;;;;;;;;;;;19.94;86.80;98700.16;5139119;27;20373;-72
2021/08/05 07:39:27;;;;;;;;;;;;;;;19.96;86.79;98698.31;5139047;27;20468;-74
2021/08/05 07:41:58;;;;;;;;;;;;;;;19.98;86.97;98696.50;5139075;27;19930;-72
2021/08/05 07:44:27;;;;;;;;;;;;;;;19.97;86.83;98697.41;5139006;27;20002;-74
2021/08/05 07:46:59;;;;;;;;;;;;;;;19.91;86.76;98689.97;5139328;27;20376;-73
2021/08/05 07:49:28;;;;;;;;;;;;;;;19.90;86.75;98679.69;5139004;27;19923;-71
2021/08/05 07:51:57;;;;;;;;;;;;;;;19.92;86.83;98681.28;5138820;27;19923;-72
2021/08/05 07:54:26;;;;;;;;;;;;;;;19.93;86.84;98676.94;5138809;27;20397;-74
2021/08/05 07:56:55;;;;;;;;;;;;;;;19.98;87.09;98680.97;5138748;27;19923;-71
2021/08/05 07:59:25;;;;;;;;;;;;;;;20.04;87.05;98680.59;5139100;27;20026;-71
2021/08/05 08:01:54;;;;;;;;;;;;;;;20.05;86.79;98687.47;5139398;27;19923;-74
2021/08/05 08:04:23;;;;;;;;;;;;;;;20.08;86.95;98675.25;5138355;27;20406;-72
2021/08/05 08:06:52;;;;;;;;;;;;;;;20.05;86.73;98666.75;5138607;27;19928;-74
2021/08/05 08:09:21;;;;;;;;;;;;;;;19.99;86.88;98669.66;5138647;27;19969;-74
2021/08/05 08:11:49;;;;;;;;;;;;;;;19.99;86.80;98671.41;5138319;27;19923;-74
2021/08/05 08:14:18;;;;;;;;;;;;;;;20.00;86.62;98668.75;5138297;27;19945;-74
2021/08/05 08:16:49;;;;;;;;;;;;;;;20.05;86.83;98671.94;5138357;27;19945;-72
2021/08/05 08:19:18;;;;;;;;;;;;;;;20.10;86.65;98673.41;5120336;27;19974;-74
2021/08/05 08:21:47;;;;;;;;;;;;;;;20.16;86.87;98678.25;5138621;27;19923;-73
2021/08/05 08:24:16;;;;;;;;;;;;;;;20.17;86.82;98674.75;5138281;27;19924;-72
2021/08/05 08:26:44;;;;;;;;;;;;;;;20.17;86.69;98670.41;5138437;27;20361;-72
2021/08/05 08:29:13;;;;;;;;;;;;;;;20.13;86.66;98679.25;5138175;27;19968;-74
2021/08/05 08:31:43;;;;;;;;;;;;;;;20.00;86.34;98673.94;5138252;27;19927;-74
2021/08/05 08:34:13;;;;;;;;;;;;;;;20.00;86.55;98668.75;5119585;27;19930;-73
2021/08/05 08:36:44;;;;;;;;;;;;;;;20.00;86.54;98668.75;5138037;27;20348;-71
2021/08/05 08:39:13;;;;;;;;;;;;;;;20.02;86.20;98661.72;5137990;27;19923;-72
2021/08/05 08:41:42;;;;;;;;;;;;;;;19.98;86.42;98655.06;5119438;27;20385;-74
2021/08/05 08:44:13;;;;;;;;;;;;;;;19.93;86.31;98651.88;5137139;27;20284;-74
2021/08/05 08:46:42;;;;;;;;;;;;;;;19.92;86.44;98654.53;5137973;27;19986;-74
2021/08/05 08:49:13;;;;;;;;;;;;;;;19.96;86.50;98643.91;5137693;27;19949;-73
2021/08/05 08:51:45;;;;;;;;;;;;;;;19.97;86.41;98642.16;5137524;27;19924;-72
2021/08/05 08:54:15;;;;;;;;;;;;;;;19.99;86.49;98643.75;5137985;27;19923;-74
2021/08/05 08:56:45;;;;;;;;;;;;;;;19.96;86.52;98641.31;5137888;27;20288;-73
2021/08/05 08:59:14;;;;;;;;;;;;;;;19.98;86.50;98631.75;5137600;27;20010;-72
2021/08/05 09:01:42;;;;;;;;;;;;;;;20.02;86.59;98633.22;5137508;27;19968;-74
2021/08/05 09:04:13;;;;;;;;;;;;;;;20.03;86.55;98627.09;5137141;27;19976;-71
2021/08/05 09:06:43;;;;;;;;;;;;;;;20.06;86.56;98621.78;5137438;27;20407;-72
2021/08/05 09:09:12;;;;;;;;;;;;;;;20.13;86.62;98626.63;5137324;27;20018;-72
2021/08/05 09:11:40;;;;;;;;;;;;;;;20.19;86.48;98631.44;5137340;27;20384;-72
2021/08/05 09:14:10;;;;;;;;;;;;;;;20.23;86.24;98635.59;5137076;27;19973;-74
2021/08/05 09:16:39;;;;;;;;;;;;;;;20.24;85.82;98634.66;5137223;27;19923;-73
2021/08/05 09:19:09;;;;;;;;;;;;;;;20.26;85.92;98630.22;5137249;27;19923;-74
2021/08/05 09:21:50;;;;;;;;;;;;;;;20.26;85.51;98628.47;5137126;27;19924;-72
2021/08/05 09:24:27;;;;;;;;;;;;;;;20.22;85.69;98628.69;5137173;27;19966;-74
2021/08/05 09:26:59;;;;;;;;;;;;;;;20.20;85.48;98618.41;5137069;27;19967;-72
2021/08/05 09:29:28;;;;;;;;;;;;;;;20.17;85.22;98615.16;5137389;27;20361;-74
2021/08/05 09:31:58;;;;;;;;;;;;;;;20.20;85.43;98617.56;5136868;27;19923;-71
2021/08/05 09:34:33;;;;;;;;;;;;;;;20.18;85.40;98614.25;5136892;27;19924;-71
2021/08/05 09:37:04;;;;;;;;;;;;;;;20.16;85.08;98613.47;5136916;27;19976;-71
2021/08/05 09:39:33;;;;;;;;;;;;;;;20.10;85.04;98611.25;5136804;27;19953;-73
2021/08/05 09:42:03;;;;;;;;;;;;;;;20.08;84.87;98598.38;5136763;27;19924;-74
2021/08/05 09:44:42;;;;;;;;;;;;;;;20.08;84.77;98588.03;5136568;27;19930;-72
2021/08/05 09:47:12;;;;;;;;;;;;;;;20.05;84.45;98586.44;5136669;27;20022;-74
2021/08/05 09:49:51;;;;;;;;;;;;;;;20.03;84.35;98588.25;5136621;27;19930;-74
2021/08/05 09:52:28;;;;;;;;;;;;;;;19.96;84.60;98584.34;5136459;27;19934;-73
2021/08/05 09:54:57;;;;;;;;;;;;;;;19.88;84.27;98576.19;5136536;27;19924;-71
2021/08/05 09:57:27;;;;;;;;;;;;;;;19.83;84.72;98567.84;5136136;27;19923;-73
2021/08/05 09:59:57;;;;;;;;;;;;;;;19.86;84.80;98561.66;5136423;27;19927;-74
2021/08/05 10:02:28;;;;;;;;;;;;;;;19.92;84.96;98572.50;5136351;27;19923;-74
2021/08/05 10:05:09;;;;;;;;;;;;;;;19.94;85.18;98565.47;5136169;27;19924;-71
2021/08/05 10:07:43;;;;;;;;;;;;;;;19.93;85.41;98558.63;5136260;27;19924;-73
2021/08/05 10:10:13;;;;;;;;;;;;;;;19.92;85.44;98550.94;5136223;27;19923;-70
2021/08/05 10:12:49;;;;;;;;;;;;;;;19.95;85.33;98554.19;5136022;27;20022;-71
2021/08/05 10:15:19;;;;;;;;;;;;;;;19.87;85.71;98543.44;5136048;27;19924;-71
2021/08/05 10:17:51;;;;;;;;;;;;;;;19.87;85.80;98543.44;5136419;27;20445;-71
2021/08/05 10:20:20;;;;;;;;;;;;;;;19.89;85.72;98538.19;5136024;27;19927;-74
2021/08/05 10:22:51;;;;;;;;;;;;;;;19.83;85.83;98531.59;5117897;27;19930;-71
2021/08/05 10:25:25;;;;;;;;;;;;;;;19.75;85.63;98528.59;5135961;27;19923;-70
2021/08/05 10:27:54;;;;;;;;;;;;;;;19.81;85.85;98519.63;5135805;27;19968;-71
2021/08/05 10:30:24;;;;;;;;;;;;;;;19.81;85.89;98517.91;5135727;27;19937;-73
2021/08/05 10:32:53;;;;;;;;;;;;;;;19.84;85.80;98512.50;5135693;27;19924;-74
2021/08/05 10:35:23;;;;;;;;;;;;;;;19.90;85.85;98514.78;5135636;27;20321;-72
2021/08/05 10:37:57;;;;;;;;;;;;;;;19.97;85.58;98512.66;5135757;27;19931;-74
2021/08/05 10:40:27;;;;;;;;;;;;;;;19.94;85.83;98511.06;5135873;27;20425;-71
2021/08/05 10:42:57;;;;;;;;;;;;;;;19.96;85.76;98504.03;5135618;27;20288;-73
2021/08/05 10:45:27;;;;;;;;;;;;;;;20.04;85.54;98508.78;5135704;27;19923;-71
2021/08/05 10:47:57;;;;;;;;;;;;;;;20.17;85.87;98488.19;5135860;27;19976;-74
2021/08/05 10:50:26;;;;;;;;;;;;;;;20.23;85.65;98496.47;5135340;27;20365;-74
2021/08/05 10:52:55;;;;;;;;;;;;;;;20.21;85.52;98489.66;5135401;27;20395;-75
2021/08/05 10:55:28;;;;;;;;;;;;;;;20.15;85.52;98490.03;5136208;27;19930;-75
2021/08/05 10:58:09;;;;;;;;;;;;;;;20.11;85.61;98493.75;5135358;27;20385;-71
2021/08/05 11:00:50;;;;;;;;;;;;;;;20.16;85.66;98481.34;5135375;27;20273;-74
2021/08/05 11:03:31;;;;;;;;;;;;;;;20.21;85.56;98468.94;5135045;27;19930;-74
2021/08/05 11:06:00;;;;;;;;;;;;;;;20.22;85.49;98471.50;5135207;27;19977;-71
2021/08/05 11:08:29;;;;;;;;;;;;;;;20.27;85.36;98472.06;5134628;27;19923;-72
2021/08/05 11:11:21;;;;;;;;;;;;;;;20.29;85.13;98471.97;5135326;27;20344;-74
2021/08/05 11:14:05;;;;;;;;;;;;;;;20.28;85.18;98475.47;5129398;27;19924;-75
2021/08/05 11:16:55;;;;;;;;;;;;;;;20.22;85.10;98486.16;5135529;27;19930;-71
2021/08/05 11:19:26;;;;;;;;;;;;;;;20.22;84.72;98486.16;5135051;27;19924;-70
2021/08/05 11:21:55;;;;;;;;;;;;;;;20.25;84.88;98484.25;5135118;27;19967;-73
2021/08/05 11:24:36;;;;;;;;;;;;;;;20.29;84.80;98484.91;5134803;27;20281;-71
2021/08/05 11:27:11;;;;;;;;;;;;;;;20.33;85.05;98481.22;5134901;28;19945;-73
2021/08/05 11:29:41;;;;;;;;;;;;;;;20.40;85.06;98472.97;5134970;28;20292;-73
2021/08/05 11:32:22;;;;;;;;;;;;;;;20.42;85.27;98473.72;5135182;28;19948;-72
2021/08/05 11:34:56;;;;;;;;;;;;;;;20.43;84.86;98461.59;5134828;28;19928;-74
2021/08/05 11:37:25;;;;;;;;;;;;;;;20.45;85.11;98451.97;5134856;28;19970;-71
2021/08/05 11:39:54;;;;;;;;;;;;;;;20.48;85.11;98456.97;5134862;28;19923;-71
2021/08/05 11:42:24;;;;;;;;;;;;;;;20.49;85.51;98459.47;5135086;28;19924;-72
2021/08/05 11:45:07;;;;;;;;;;;;;;;20.54;85.55;98464.38;5134728;28;20018;-71
2021/08/05 11:47:40;;;;;;;;;;;;;;;20.51;85.37;98467.16;5134802;28;19931;-69
2021/08/05 11:50:15;;;;;;;;;;;;;;;20.48;85.29;98468.19;5134714;28;19923;-74
2021/08/05 11:53:03;;;;;;;;;;;;;;;20.44;85.34;98468.47;5135058;28;19924;-71
2021/08/05 11:55:34;;;;;;;;;;;;;;;20.39;85.18;98467.91;5134585;28;19932;-73
2021/08/05 11:58:04;;;;;;;;;;;;;;;20.38;85.03;98474.00;5134655;28;20437;-72
2021/08/05 12:00:35;;;;;;;;;;;;;;;20.35;84.88;98476.75;5135016;28;19976;-73
2021/08/05 12:03:05;;;;;;;;;;;;;;;20.34;84.87;98470.78;5134392;28;20380;-73
2021/08/05 12:05:38;;;;;;;;;;;;;;;20.28;85.01;98470.28;5134661;28;19923;-71
2021/08/05 12:08:07;;;;;;;;;;;;;;;20.30;85.06;98473.63;5134562;28;20381;-73
2021/08/05 12:10:38;;;;;;;;;;;;;;;20.22;85.08;98475.81;5116507;28;19930;-72
2021/08/05 12:13:13;;;;;;;;;;;;;;;20.19;85.41;98471.63;5134614;28;19945;-71
2021/08/05 12:15:43;;;;;;;;;;;;;;;20.23;85.59;98473.16;5134439;28;19950;-74
2021/08/05 12:18:15;;;;;;;;;;;;;;;20.25;85.63;98466.09;5135386;28;20046;-72
2021/08/05 12:20:46;;;;;;;;;;;;;;;20.27;85.41;98468.63;5138206;27;19946;-71
2021/08/05 12:23:18;;;;;;;;;;;;;;;20.28;85.35;98465.09;5138323;27;20292;-73
2021/08/05 12:25:49;;;;;;;;;;;;;;;20.25;85.39;98462.72;5138324;27;19930;-71
2021/08/05 12:28:18;;;;;;;;;;;;;;;20.20;85.37;98462.09;5138282;27;19951;-72
2021/08/05 12:30:49;;;;;;;;;;;;;;;20.14;85.35;98452.09;5138174;27;20353;-74
2021/08/05 12:33:22;;;;;;;;;;;;;;;20.14;85.21;98446.91;5138088;27;19951;-71
2021/08/05 12:36:01;;;;;;;;;;;;;;;20.05;85.22;98451.72;5138080;27;19927;-72
2021/08/05 12:38:32;;;;;;;;;;;;;;;19.94;84.82;98451.50;5138093;27;19973;-71
2021/08/05 12:41:02;;;;;;;;;;;;;;;19.82;84.32;98452.22;5137983;27;20304;-72
2021/08/05 12:43:34;;;;;;;;;;;;;;;19.78;84.24;98442.13;5137846;27;19930;-73
2021/08/05 12:46:03;;;;;;;;;;;;;;;19.78;84.14;98440.38;5137892;27;19924;-73
2021/08/05 12:48:32;;;;;;;;;;;;;;;19.77;84.31;98438.69;5137824;27;19923;-74
2021/08/05 12:51:01;;;;;;;;;;;;;;;19.77;84.32;98428.34;5137724;27;19923;-71
2021/08/05 12:53:33;;;;;;;;;;;;;;;19.73;84.32;98426.84;5137712;27;19923;-73
2021/08/05 12:56:04;;;;;;;;;;;;;;;19.67;84.30;98432.41;5138272;27;19946;-71
2021/08/05 12:58:56;;;;;;;;;;;;;;;19.45;83.93;98439.72;5131439;27;20048;-72
2021/08/05 13:01:26;;;;;;;;;;;;;;;19.37;84.05;98434.13;5137560;27;19935;-71
2021/08/05 13:03:56;;;;;;;;;;;;;;;19.26;84.18;98436.47;5137302;27;20006;-73